sensor_id;sensor_type;location;lat;lon;timestamp;pressure;altitude;pressure_sealevel;temperature;humidity
5350;BME280;2697;42.144;24.794;2023-03-09T00:00:26;155293.91;;;10.57;81.41
5350;BME280;2697;42.144;24.794;2023-03-09T00:02:52;155345.28;;;10.77;81.28
5350;BME280;2697;42.144;24.794;2023-03-09T00:05:17;155362.41;;;10.84;80.94
5350;BME280;2697;42.144;24.794;2023-03-09T00:07:46;155372.94;;;10.88;80.31
5350;BME280;2697;42.144;24.794;2023-03-09T00:10:13;155358.47;;;10.82;80.29
5350;BME280;2697;42.144;24.794;2023-03-09T00:12:38;155297.88;;;10.59;81.44
5350;BME280;2697;42.144;24.794;2023-03-09T00:15:04;155316.31;;;10.66;81.14
5350;BME280;2697;42.144;24.794;2023-03-09T00:17:30;155301.81;;;10.61;81.73
5350;BME280;2697;42.144;24.794;2023-03-09T00:19:55;155237.31;;;10.36;83.14
5350;BME280;2697;42.144;24.794;2023-03-09T00:22:41;155257.09;;;10.43;82.88
5350;BME280;2697;42.144;24.794;2023-03-09T00:25:07;155236.00;;;10.35;82.94
5350;BME280;2697;42.144;24.794;2023-03-09T00:27:33;155180.63;;;10.14;83.79
5350;BME280;2697;42.144;24.794;2023-03-09T00:29:58;155160.94;;;10.06;83.75
5350;BME280;2697;42.144;24.794;2023-03-09T00:32:24;155154.31;;;10.04;84.02
5350;BME280;2697;42.144;24.794;2023-03-09T00:34:49;155101.69;;;9.83;85.58
5350;BME280;2697;42.144;24.794;2023-03-09T00:37:14;155064.88;;;9.69;86.56
5350;BME280;2697;42.144;24.794;2023-03-09T00:39:40;155059.56;;;9.67;86.53
5350;BME280;2697;42.144;24.794;2023-03-09T00:42:05;155049.06;;;9.63;86.71
5350;BME280;2697;42.144;24.794;2023-03-09T00:44:31;155056.94;;;9.66;87.30
5350;BME280;2697;42.144;24.794;2023-03-09T00:46:56;155041.19;;;9.60;87.97
5350;BME280;2697;42.144;24.794;2023-03-09T00:49:21;154983.25;;;9.37;88.33
5350;BME280;2697;42.144;24.794;2023-03-09T00:51:48;154964.84;;;9.30;88.84
5350;BME280;2697;42.144;24.794;2023-03-09T00:54:14;154971.44;;;9.33;88.96
5350;BME280;2697;42.144;24.794;2023-03-09T00:56:40;154995.13;;;9.42;88.49
5350;BME280;2697;42.144;24.794;2023-03-09T00:59:06;155009.56;;;9.48;88.50
5350;BME280;2697;42.144;24.794;2023-03-09T01:01:31;155035.88;;;9.58;88.01
5350;BME280;2697;42.144;24.794;2023-03-09T01:03:57;155071.44;;;9.71;86.73
5350;BME280;2697;42.144;24.794;2023-03-09T01:06:23;155075.38;;;9.73;86.39
5350;BME280;2697;42.144;24.794;2023-03-09T01:08:49;155047.75;;;9.62;86.62
5350;BME280;2697;42.144;24.794;2023-03-09T01:11:16;155063.56;;;9.68;86.77
5350;BME280;2697;42.144;24.794;2023-03-09T01:13:42;155062.25;;;9.68;86.02
5350;BME280;2697;42.144;24.794;2023-03-09T01:16:07;155037.19;;;9.58;86.37
5350;BME280;2697;42.144;24.794;2023-03-09T01:18:33;155021.44;;;9.52;87.08
5350;BME280;2697;42.144;24.794;2023-03-09T01:20:59;155026.69;;;9.54;86.82
5350;BME280;2697;42.144;24.794;2023-03-09T01:23:25;155025.38;;;9.54;86.49
5350;BME280;2697;42.144;24.794;2023-03-09T01:25:51;155001.69;;;9.45;87.38
5350;BME280;2697;42.144;24.794;2023-03-09T01:28:16;154972.75;;;9.33;88.02
5350;BME280;2697;42.144;24.794;2023-03-09T01:30:41;154962.22;;;9.29;87.51
5350;BME280;2697;42.144;24.794;2023-03-09T01:33:07;154980.63;;;9.36;87.76
5350;BME280;2697;42.144;24.794;2023-03-09T01:35:32;154972.75;;;9.33;87.86
5350;BME280;2697;42.144;24.794;2023-03-09T01:37:58;154980.63;;;9.36;88.01
5350;BME280;2697;42.144;24.794;2023-03-09T01:40:25;154972.75;;;9.33;87.88
5350;BME280;2697;42.144;24.794;2023-03-09T01:42:59;154956.97;;;9.27;88.84
5350;BME280;2697;42.144;24.794;2023-03-09T01:47:51;154935.91;;;9.19;89.17
5350;BME280;2697;42.144;24.794;2023-03-09T01:50:20;154933.28;;;9.18;88.98
5350;BME280;2697;42.144;24.794;2023-03-09T01:52:48;154933.28;;;9.18;89.25
5350;BME280;2697;42.144;24.794;2023-03-09T01:55:19;154930.66;;;9.17;89.23
5350;BME280;2697;42.144;24.794;2023-03-09T01:57:52;154904.34;;;9.07;90.01
5350;BME280;2697;42.144;24.794;2023-03-09T02:00:21;154883.31;;;8.99;90.85
5350;BME280;2697;42.144;24.794;2023-03-09T02:02:52;154880.69;;;8.98;90.82
5350;BME280;2697;42.144;24.794;2023-03-09T02:05:30;154883.31;;;8.99;91.37
5350;BME280;2697;42.144;24.794;2023-03-09T02:07:57;154889.88;;;9.01;91.22
5350;BME280;2697;42.144;24.794;2023-03-09T02:10:45;154893.84;;;9.03;90.94
5350;BME280;2697;42.144;24.794;2023-03-09T02:13:16;154885.94;;;9.00;90.73
5350;BME280;2697;42.144;24.794;2023-03-09T02:15:43;154885.94;;;9.00;91.00
5350;BME280;2697;42.144;24.794;2023-03-09T02:18:09;154910.91;;;9.09;90.46
5350;BME280;2697;42.144;24.794;2023-03-09T02:23:36;154967.50;;;9.31;88.91
5350;BME280;2697;42.144;24.794;2023-03-09T02:28:48;155039.88;;;9.59;88.11
5350;BME280;2697;42.144;24.794;2023-03-09T02:31:15;155071.44;;;9.71;86.47
5350;BME280;2697;42.144;24.794;2023-03-09T02:33:41;155043.81;;;9.61;86.58
5350;BME280;2697;42.144;24.794;2023-03-09T02:36:07;155024.06;;;9.53;86.83
5350;BME280;2697;42.144;24.794;2023-03-09T02:38:33;155022.75;;;9.53;87.34
5350;BME280;2697;42.144;24.794;2023-03-09T02:41:01;155018.81;;;9.51;86.62
5350;BME280;2697;42.144;24.794;2023-03-09T02:43:34;155004.31;;;9.46;87.29
5350;BME280;2697;42.144;24.794;2023-03-09T02:46:01;155000.38;;;9.44;86.74
5350;BME280;2697;42.144;24.794;2023-03-09T02:48:27;154962.22;;;9.29;87.34
5350;BME280;2697;42.144;24.794;2023-03-09T02:50:52;154917.53;;;9.12;88.77
5350;BME280;2697;42.144;24.794;2023-03-09T02:53:18;154949.09;;;9.24;88.20
5350;BME280;2697;42.144;24.794;2023-03-09T02:55:43;154906.97;;;9.08;88.80
5350;BME280;2697;42.144;24.794;2023-03-09T02:58:08;154859.63;;;8.90;90.78
5350;BME280;2697;42.144;24.794;2023-03-09T03:00:34;154839.91;;;8.82;91.23
5350;BME280;2697;42.144;24.794;2023-03-09T03:02:59;154713.66;;;8.33;93.74
5350;BME280;2697;42.144;24.794;2023-03-09T03:05:25;154630.88;;;8.01;94.96
5350;BME280;2697;42.144;24.794;2023-03-09T03:07:51;154552.03;;;7.70;96.79
5350;BME280;2697;42.144;24.794;2023-03-09T03:10:16;154462.75;;;7.36;100.00
5350;BME280;2697;42.144;24.794;2023-03-09T03:12:42;154364.22;;;6.98;100.00
5350;BME280;2697;42.144;24.794;2023-03-09T03:15:08;154297.31;;;6.72;100.00
5350;BME280;2697;42.144;24.794;2023-03-09T03:17:33;154403.63;;;7.13;100.00
5350;BME280;2697;42.144;24.794;2023-03-09T03:19:59;154415.47;;;7.18;100.00
5350;BME280;2697;42.144;24.794;2023-03-09T03:22:24;154382.59;;;7.05;100.00
5350;BME280;2697;42.144;24.794;2023-03-09T03:24:50;154389.22;;;7.07;100.00
5350;BME280;2697;42.144;24.794;2023-03-09T03:27:15;154356.34;;;6.95;100.00
5350;BME280;2697;42.144;24.794;2023-03-09T03:29:41;154364.22;;;6.98;100.00
5350;BME280;2697;42.144;24.794;2023-03-09T03:32:07;154364.22;;;6.98;100.00
5350;BME280;2697;42.144;24.794;2023-03-09T03:34:32;154351.13;;;6.93;100.00
5350;BME280;2697;42.144;24.794;2023-03-09T03:36:58;154343.25;;;6.90;100.00
5350;BME280;2697;42.144;24.794;2023-03-09T03:39:23;154341.94;;;6.89;100.00
5350;BME280;2697;42.144;24.794;2023-03-09T03:41:48;154368.19;;;6.99;100.00
5350;BME280;2697;42.144;24.794;2023-03-09T03:44:14;154339.28;;;6.88;100.00
5350;BME280;2697;42.144;24.794;2023-03-09T03:46:39;154349.81;;;6.92;100.00
5350;BME280;2697;42.144;24.794;2023-03-09T03:49:05;154341.94;;;6.89;100.00
5350;BME280;2697;42.144;24.794;2023-03-09T03:51:30;154307.78;;;6.76;100.00
5350;BME280;2697;42.144;24.794;2023-03-09T03:53:55;154309.09;;;6.76;100.00
5350;BME280;2697;42.144;24.794;2023-03-09T03:56:21;154320.94;;;6.81;100.00
5350;BME280;2697;42.144;24.794;2023-03-09T03:58:46;154317.00;;;6.79;100.00
5350;BME280;2697;42.144;24.794;2023-03-09T04:01:12;154310.41;;;6.77;100.00
5350;BME280;2697;42.144;24.794;2023-03-09T04:03:37;154298.63;;;6.72;100.00
5350;BME280;2697;42.144;24.794;2023-03-09T04:06:02;154319.63;;;6.80;100.00
5350;BME280;2697;42.144;24.794;2023-03-09T04:08:30;154332.72;;;6.85;100.00
5350;BME280;2697;42.144;24.794;2023-03-09T04:10:55;154341.94;;;6.89;100.00
5350;BME280;2697;42.144;24.794;2023-03-09T04:13:21;154355.03;;;6.94;100.00
5350;BME280;2697;42.144;24.794;2023-03-09T04:15:46;154340.59;;;6.89;100.00
5350;BME280;2697;42.144;24.794;2023-03-09T04:18:12;154347.19;;;6.91;100.00
5350;BME280;2697;42.144;24.794;2023-03-09T04:20:39;154310.41;;;6.77;100.00
5350;BME280;2697;42.144;24.794;2023-03-09T04:23:04;154320.94;;;6.81;100.00
5350;BME280;2697;42.144;24.794;2023-03-09T04:25:30;154331.41;;;6.85;100.00
5350;BME280;2697;42.144;24.794;2023-03-09T04:27:55;154339.28;;;6.88;100.00
5350;BME280;2697;42.144;24.794;2023-03-09T04:30:22;154368.19;;;6.99;100.00
5350;BME280;2697;42.144;24.794;2023-03-09T04:32:48;154386.53;;;7.06;100.00
5350;BME280;2697;42.144;24.794;2023-03-09T04:35:14;154372.13;;;7.01;100.00
5350;BME280;2697;42.144;24.794;2023-03-09T04:37:39;154357.66;;;6.95;100.00
5350;BME280;2697;42.144;24.794;2023-03-09T04:40:05;154352.44;;;6.93;100.00
5350;BME280;2697;42.144;24.794;2023-03-09T04:42:31;154356.34;;;6.95;100.00
5350;BME280;2697;42.144;24.794;2023-03-09T04:44:56;154355.03;;;6.94;100.00
5350;BME280;2697;42.144;24.794;2023-03-09T04:47:22;154332.72;;;6.85;100.00
5350;BME280;2697;42.144;24.794;2023-03-09T04:49:48;154318.31;;;6.80;100.00
5350;BME280;2697;42.144;24.794;2023-03-09T04:52:13;154326.16;;;6.83;100.00
5350;BME280;2697;42.144;24.794;2023-03-09T04:54:40;154370.81;;;7.00;100.00
5350;BME280;2697;42.144;24.794;2023-03-09T04:57:06;154349.81;;;6.92;100.00
5350;BME280;2697;42.144;24.794;2023-03-09T04:59:31;154330.09;;;6.84;100.00
5350;BME280;2697;42.144;24.794;2023-03-09T05:01:57;154260.53;;;6.57;100.00
5350;BME280;2697;42.144;24.794;2023-03-09T05:04:23;154247.44;;;6.52;100.00
5350;BME280;2697;42.144;24.794;2023-03-09T05:06:48;154236.91;;;6.48;100.00
5350;BME280;2697;42.144;24.794;2023-03-09T05:09:13;154227.72;;;6.45;100.00
5350;BME280;2697;42.144;24.794;2023-03-09T05:11:39;154248.75;;;6.53;100.00
5350;BME280;2697;42.144;24.794;2023-03-09T05:14:04;154239.53;;;6.49;100.00
5350;BME280;2697;42.144;24.794;2023-03-09T05:16:30;154231.66;;;6.46;100.00
5350;BME280;2697;42.144;24.794;2023-03-09T05:18:55;154253.97;;;6.55;100.00
5350;BME280;2697;42.144;24.794;2023-03-09T05:21:22;154284.16;;;6.67;100.00
5350;BME280;2697;42.144;24.794;2023-03-09T05:23:47;154412.84;;;7.17;100.00
5350;BME280;2697;42.144;24.794;2023-03-09T05:26:13;154575.66;;;7.80;100.00
5350;BME280;2697;42.144;24.794;2023-03-09T05:28:38;154951.72;;;9.25;100.00
5350;BME280;2697;42.144;24.794;2023-03-09T05:31:11;155275.47;;;10.50;100.00
5350;BME280;2697;42.144;24.794;2023-03-09T05:33:37;155436.16;;;11.12;94.83
5350;BME280;2697;42.144;24.794;2023-03-09T05:36:03;155087.25;;;9.78;100.00
5350;BME280;2697;42.144;24.794;2023-03-09T05:38:38;155301.81;;;10.61;93.02
5350;BME280;2697;42.144;24.794;2023-03-09T05:41:05;155437.47;;;11.13;89.45
5350;BME280;2697;42.144;24.794;2023-03-09T05:43:30;155664.22;;;12.01;83.13
5350;BME280;2697;42.144;24.794;2023-03-09T05:45:56;155910.81;;;12.96;77.55
5350;BME280;2697;42.144;24.794;2023-03-09T05:48:21;156102.22;;;13.69;74.01
5350;BME280;2697;42.144;24.794;2023-03-09T05:50:46;155923.97;;;13.01;77.45
5350;BME280;2697;42.144;24.794;2023-03-09T05:53:12;156365.03;;;14.71;72.37
5350;BME280;2697;42.144;24.794;2023-03-09T05:55:37;156151.06;;;13.88;72.11
5350;BME280;2697;42.144;24.794;2023-03-09T05:58:02;156633.34;;;15.74;66.36
5350;BME280;2697;42.144;24.794;2023-03-09T06:00:28;157059.31;;;17.38;59.85
5350;BME280;2697;42.144;24.794;2023-03-09T06:02:53;156994.50;;;17.13;58.69
5350;BME280;2697;42.144;24.794;2023-03-09T06:05:19;157145.44;;;17.71;55.09
5350;BME280;2697;42.144;24.794;2023-03-09T06:07:44;157447.47;;;18.87;53.01
5350;BME280;2697;42.144;24.794;2023-03-09T06:10:10;157464.69;;;18.94;49.62
5350;BME280;2697;42.144;24.794;2023-03-09T06:12:36;157443.50;;;18.86;49.81
5350;BME280;2697;42.144;24.794;2023-03-09T06:15:02;157295.06;;;18.29;50.48
5350;BME280;2697;42.144;24.794;2023-03-09T06:17:27;157013.00;;;17.20;53.08
5350;BME280;2697;42.144;24.794;2023-03-09T06:19:53;156732.53;;;16.12;55.75
5350;BME280;2697;42.144;24.794;2023-03-09T06:22:19;156448.25;;;15.03;59.13
5350;BME280;2697;42.144;24.794;2023-03-09T06:24:44;156275.16;;;14.36;62.61
5350;BME280;2697;42.144;24.794;2023-03-09T06:27:09;156222.34;;;14.16;64.09
5350;BME280;2697;42.144;24.794;2023-03-09T06:29:35;156102.22;;;13.69;65.74
5350;BME280;2697;42.144;24.794;2023-03-09T06:32:00;156011.13;;;13.34;66.47
5350;BME280;2697;42.144;24.794;2023-03-09T06:34:29;155999.22;;;13.30;67.55
5350;BME280;2697;42.144;24.794;2023-03-09T06:36:54;156096.91;;;13.67;66.96
5350;BME280;2697;42.144;24.794;2023-03-09T06:39:20;156063.91;;;13.55;66.63
5350;BME280;2697;42.144;24.794;2023-03-09T06:41:45;156137.84;;;13.83;65.72
5350;BME280;2697;42.144;24.794;2023-03-09T06:44:11;156169.50;;;13.95;65.40
5350;BME280;2697;42.144;24.794;2023-03-09T06:46:37;156118.03;;;13.76;65.13
5350;BME280;2697;42.144;24.794;2023-03-09T06:49:02;156246.13;;;14.25;64.30
5350;BME280;2697;42.144;24.794;2023-03-09T06:51:27;156090.31;;;13.65;64.11
5350;BME280;2697;42.144;24.794;2023-03-09T06:53:53;156077.13;;;13.60;66.26
5350;BME280;2697;42.144;24.794;2023-03-09T06:56:18;156156.31;;;13.90;67.45
5350;BME280;2697;42.144;24.794;2023-03-09T06:58:44;156077.13;;;13.60;70.71
5350;BME280;2697;42.144;24.794;2023-03-09T07:01:12;156079.78;;;13.61;71.16
5350;BME280;2697;42.144;24.794;2023-03-09T07:03:39;156073.13;;;13.58;71.36
5350;BME280;2697;42.144;24.794;2023-03-09T07:06:05;156052.06;;;13.50;72.48
5350;BME280;2697;42.144;24.794;2023-03-09T07:08:30;155744.63;;;12.32;79.82
5350;BME280;2697;42.144;24.794;2023-03-09T07:10:56;155689.28;;;12.10;82.63
5350;BME280;2697;42.144;24.794;2023-03-09T07:13:22;155803.94;;;12.54;80.34
5350;BME280;2697;42.144;24.794;2023-03-09T07:15:47;155855.38;;;12.74;79.66
5350;BME280;2697;42.144;24.794;2023-03-09T07:18:13;155934.56;;;13.05;78.92
5350;BME280;2697;42.144;24.794;2023-03-09T07:20:39;156149.75;;;13.88;75.71
5350;BME280;2697;42.144;24.794;2023-03-09T07:23:06;156005.88;;;13.32;75.95
5350;BME280;2697;42.144;24.794;2023-03-09T07:25:32;156005.88;;;13.32;75.54
5350;BME280;2697;42.144;24.794;2023-03-09T07:28:02;156098.25;;;13.68;75.46
5350;BME280;2697;42.144;24.794;2023-03-09T07:30:27;156182.72;;;14.01;74.13
5350;BME280;2697;42.144;24.794;2023-03-09T07:32:54;156333.31;;;14.59;71.34
5350;BME280;2697;42.144;24.794;2023-03-09T07:35:20;156428.44;;;14.95;70.20
5350;BME280;2697;42.144;24.794;2023-03-09T07:37:45;156579.06;;;15.53;64.84
5350;BME280;2697;42.144;24.794;2023-03-09T07:40:11;156617.47;;;15.68;62.87
5350;BME280;2697;42.144;24.794;2023-03-09T07:42:36;156666.41;;;15.87;62.60
5350;BME280;2697;42.144;24.794;2023-03-09T07:45:02;156748.34;;;16.18;61.95
5350;BME280;2697;42.144;24.794;2023-03-09T07:47:27;156499.78;;;15.23;62.97
5350;BME280;2697;42.144;24.794;2023-03-09T07:49:53;156602.91;;;15.62;62.34
5350;BME280;2697;42.144;24.794;2023-03-09T07:52:18;156591.00;;;15.58;62.26
5350;BME280;2697;42.144;24.794;2023-03-09T07:54:43;156571.16;;;15.50;61.81
5350;BME280;2697;42.144;24.794;2023-03-09T07:57:09;156702.06;;;16.01;61.34
5350;BME280;2697;42.144;24.794;2023-03-09T07:59:34;156727.25;;;16.10;61.65
5350;BME280;2697;42.144;24.794;2023-03-09T08:01:59;156717.94;;;16.07;61.64
5350;BME280;2697;42.144;24.794;2023-03-09T08:04:25;156782.78;;;16.32;61.50
5350;BME280;2697;42.144;24.794;2023-03-09T08:06:51;156732.53;;;16.12;62.19
5350;BME280;2697;42.144;24.794;2023-03-09T08:09:16;156575.13;;;15.52;63.89
5350;BME280;2697;42.144;24.794;2023-03-09T08:11:42;156663.75;;;15.86;63.89
5350;BME280;2697;42.144;24.794;2023-03-09T08:14:11;156743.06;;;16.16;61.69
5350;BME280;2697;42.144;24.794;2023-03-09T08:16:37;156867.41;;;16.64;61.37
5350;BME280;2697;42.144;24.794;2023-03-09T08:19:02;156843.59;;;16.55;59.26
5350;BME280;2697;42.144;24.794;2023-03-09T08:21:28;156975.97;;;17.06;58.32
5350;BME280;2697;42.144;24.794;2023-03-09T08:23:53;156925.69;;;16.87;59.45
5350;BME280;2697;42.144;24.794;2023-03-09T08:26:18;156975.97;;;17.06;58.77
5350;BME280;2697;42.144;24.794;2023-03-09T08:28:45;157120.25;;;17.61;58.41
5350;BME280;2697;42.144;24.794;2023-03-09T08:31:13;157134.78;;;17.67;55.52
5350;BME280;2697;42.144;24.794;2023-03-09T08:33:39;157152.06;;;17.74;54.91
5350;BME280;2697;42.144;24.794;2023-03-09T08:36:16;157365.28;;;18.56;52.52
5350;BME280;2697;42.144;24.794;2023-03-09T08:38:44;157342.75;;;18.47;51.36
5350;BME280;2697;42.144;24.794;2023-03-09T08:41:09;157338.78;;;18.45;52.10
5350;BME280;2697;42.144;24.794;2023-03-09T08:43:35;157367.94;;;18.57;52.50
5350;BME280;2697;42.144;24.794;2023-03-09T08:46:00;157261.97;;;18.16;52.24
5350;BME280;2697;42.144;24.794;2023-03-09T08:48:26;157470.00;;;18.96;51.26
5350;BME280;2697;42.144;24.794;2023-03-09T08:50:51;157560.13;;;19.30;49.97
5350;BME280;2697;42.144;24.794;2023-03-09T08:53:16;157458.09;;;18.91;50.43
5350;BME280;2697;42.144;24.794;2023-03-09T08:55:43;157455.44;;;18.90;50.19
5350;BME280;2697;42.144;24.794;2023-03-09T08:58:09;157443.50;;;18.86;50.04
5350;BME280;2697;42.144;24.794;2023-03-09T09:00:34;157487.22;;;19.02;50.33
5350;BME280;2697;42.144;24.794;2023-03-09T09:02:59;157654.31;;;19.67;49.77
5350;BME280;2697;42.144;24.794;2023-03-09T09:05:25;157491.19;;;19.04;49.07
5350;BME280;2697;42.144;24.794;2023-03-09T09:07:50;157599.91;;;19.46;49.67
5350;BME280;2697;42.144;24.794;2023-03-09T09:10:16;157773.66;;;20.12;47.91
5350;BME280;2697;42.144;24.794;2023-03-09T09:12:41;157683.47;;;19.78;47.64
5350;BME280;2697;42.144;24.794;2023-03-09T09:15:07;157609.16;;;19.49;49.34
5350;BME280;2697;42.144;24.794;2023-03-09T09:17:35;157760.38;;;20.07;46.73
5350;BME280;2697;42.144;24.794;2023-03-09T09:20:02;157755.06;;;20.05;47.48
5350;BME280;2697;42.144;24.794;2023-03-09T09:22:28;157655.63;;;19.67;47.49
5350;BME280;2697;42.144;24.794;2023-03-09T09:24:53;157691.41;;;19.81;47.21
5350;BME280;2697;42.144;24.794;2023-03-09T09:27:19;157755.06;;;20.05;46.24
5350;BME280;2697;42.144;24.794;2023-03-09T09:29:44;157893.06;;;20.58;45.32
5350;BME280;2697;42.144;24.794;2023-03-09T09:32:10;157924.91;;;20.70;44.89
5350;BME280;2697;42.144;24.794;2023-03-09T09:34:35;157829.34;;;20.34;44.90
5350;BME280;2697;42.144;24.794;2023-03-09T09:37:02;157818.75;;;20.30;45.63
5350;BME280;2697;42.144;24.794;2023-03-09T09:39:29;158054.94;;;21.20;42.94
5350;BME280;2697;42.144;24.794;2023-03-09T09:42:01;158195.69;;;21.74;41.12
5350;BME280;2697;42.144;24.794;2023-03-09T09:44:32;158074.91;;;21.28;40.66
5350;BME280;2697;42.144;24.794;2023-03-09T09:47:01;158179.75;;;21.68;40.36
5350;BME280;2697;42.144;24.794;2023-03-09T09:49:31;158178.44;;;21.68;40.19
5350;BME280;2697;42.144;24.794;2023-03-09T09:52:17;158066.91;;;21.25;40.90
5350;BME280;2697;42.144;24.794;2023-03-09T10:08:34;158061.59;;;21.23;40.46
5350;BME280;2697;42.144;24.794;2023-03-09T10:13:41;158214.31;;;21.81;39.64
5350;BME280;2697;42.144;24.794;2023-03-09T10:16:16;158121.38;;;21.46;39.67
5350;BME280;2697;42.144;24.794;2023-03-09T10:18:48;158166.50;;;21.63;39.01
5350;BME280;2697;42.144;24.794;2023-03-09T10:21:22;158214.31;;;21.81;39.25
5350;BME280;2697;42.144;24.794;2023-03-09T10:23:48;158299.31;;;22.14;38.79
5350;BME280;2697;42.144;24.794;2023-03-09T10:28:50;158155.84;;;21.59;39.22
5350;BME280;2697;42.144;24.794;2023-03-09T10:31:20;157805.47;;;20.25;41.47
5350;BME280;2697;42.144;24.794;2023-03-09T10:33:49;158020.44;;;21.07;40.19
5350;BME280;2697;42.144;24.794;2023-03-09T10:36:27;158169.16;;;21.64;38.64
5350;BME280;2697;42.144;24.794;2023-03-09T10:38:55;158178.44;;;21.68;38.44
5350;BME280;2697;42.144;24.794;2023-03-09T10:41:22;157964.72;;;20.86;40.88
5350;BME280;2697;42.144;24.794;2023-03-09T10:43:48;158017.78;;;21.06;40.54
5350;BME280;2697;42.144;24.794;2023-03-09T10:46:22;157983.28;;;20.93;40.07
5350;BME280;2697;42.144;24.794;2023-03-09T10:48:49;158000.53;;;20.99;40.60
5350;BME280;2697;42.144;24.794;2023-03-09T10:51:31;158004.50;;;21.01;40.37
5350;BME280;2697;42.144;24.794;2023-03-09T10:54:23;158139.97;;;21.53;39.02
5350;BME280;2697;42.144;24.794;2023-03-09T10:56:49;158108.13;;;21.41;39.14
5350;BME280;2697;42.144;24.794;2023-03-09T10:59:27;157952.75;;;20.81;40.54
5350;BME280;2697;42.144;24.794;2023-03-09T11:01:56;158097.47;;;21.37;39.30
5350;BME280;2697;42.144;24.794;2023-03-09T11:06:59;157871.84;;;20.50;40.94
5350;BME280;2697;42.144;24.794;2023-03-09T11:09:27;157871.84;;;20.50;40.57
5350;BME280;2697;42.144;24.794;2023-03-09T11:12:10;157992.59;;;20.96;39.80
5350;BME280;2697;42.144;24.794;2023-03-09T11:14:44;157760.38;;;20.07;42.11
5350;BME280;2697;42.144;24.794;2023-03-09T11:20:24;157813.41;;;20.28;40.68
5350;BME280;2697;42.144;24.794;2023-03-09T11:26:03;157670.19;;;19.73;41.44
5350;BME280;2697;42.144;24.794;2023-03-09T11:28:34;157702.03;;;19.85;42.49
5350;BME280;2697;42.144;24.794;2023-03-09T11:31:06;157813.41;;;20.28;42.24
5350;BME280;2697;42.144;24.794;2023-03-09T11:33:35;157826.69;;;20.33;42.34
5350;BME280;2697;42.144;24.794;2023-03-09T11:36:01;157826.69;;;20.33;41.50
5350;BME280;2697;42.144;24.794;2023-03-09T11:38:28;157749.78;;;20.03;41.98
5350;BME280;2697;42.144;24.794;2023-03-09T11:41:12;157699.38;;;19.84;42.92
5350;BME280;2697;42.144;24.794;2023-03-09T11:43:41;157647.69;;;19.64;43.13
5350;BME280;2697;42.144;24.794;2023-03-09T11:46:13;157577.38;;;19.37;43.48
5350;BME280;2697;42.144;24.794;2023-03-09T11:49:12;157662.25;;;19.70;43.16
5350;BME280;2697;42.144;24.794;2023-03-09T11:51:46;157676.84;;;19.75;42.69
5350;BME280;2697;42.144;24.794;2023-03-09T11:54:30;157642.34;;;19.62;42.16
5350;BME280;2697;42.144;24.794;2023-03-09T11:57:02;157679.50;;;19.76;42.25
5350;BME280;2697;42.144;24.794;2023-03-09T11:59:41;157619.75;;;19.53;43.15
5350;BME280;2697;42.144;24.794;2023-03-09T12:05:01;157645.00;;;19.63;43.08
5350;BME280;2697;42.144;24.794;2023-03-09T12:07:33;157702.03;;;19.85;43.17
5350;BME280;2697;42.144;24.794;2023-03-09T12:10:12;157715.25;;;19.90;44.17
5350;BME280;2697;42.144;24.794;2023-03-09T12:12:48;157740.47;;;20.00;42.85
5350;BME280;2697;42.144;24.794;2023-03-09T12:15:35;157763.00;;;20.08;42.44
5350;BME280;2697;42.144;24.794;2023-03-09T12:18:05;157765.66;;;20.09;43.09
5350;BME280;2697;42.144;24.794;2023-03-09T12:20:39;157720.59;;;19.92;43.45
5350;BME280;2697;42.144;24.794;2023-03-09T12:26:22;157699.38;;;19.84;43.54
5350;BME280;2697;42.144;24.794;2023-03-09T12:31:40;157704.69;;;19.86;42.44
5350;BME280;2697;42.144;24.794;2023-03-09T12:34:24;157771.00;;;20.11;42.48
5350;BME280;2697;42.144;24.794;2023-03-09T12:36:50;157829.34;;;20.34;42.13
5350;BME280;2697;42.144;24.794;2023-03-09T12:42:01;157786.88;;;20.17;42.51
5350;BME280;2697;42.144;24.794;2023-03-09T12:49:47;157820.06;;;20.30;41.92
5350;BME280;2697;42.144;24.794;2023-03-09T12:52:21;157829.34;;;20.34;43.45
5350;BME280;2697;42.144;24.794;2023-03-09T12:54:56;157829.34;;;20.34;42.73
5350;BME280;2697;42.144;24.794;2023-03-09T12:57:22;157850.56;;;20.42;42.12
5350;BME280;2697;42.144;24.794;2023-03-09T12:59:49;157964.72;;;20.86;41.18
5350;BME280;2697;42.144;24.794;2023-03-09T13:02:28;157983.28;;;20.93;40.42
5350;BME280;2697;42.144;24.794;2023-03-09T13:05:12;157983.28;;;20.93;40.29
5350;BME280;2697;42.144;24.794;2023-03-09T13:07:51;157897.06;;;20.60;39.74
5350;BME280;2697;42.144;24.794;2023-03-09T13:10:37;157816.06;;;20.29;41.22
5350;BME280;2697;42.144;24.794;2023-03-09T13:13:36;157850.56;;;20.42;40.85
5350;BME280;2697;42.144;24.794;2023-03-09T13:27:12;158052.28;;;21.19;39.84
5350;BME280;2697;42.144;24.794;2023-03-09T13:29:45;158113.41;;;21.43;38.82
5350;BME280;2697;42.144;24.794;2023-03-09T13:32:33;158129.31;;;21.49;39.03
5350;BME280;2697;42.144;24.794;2023-03-09T13:35:02;158125.34;;;21.47;39.08
5350;BME280;2697;42.144;24.794;2023-03-09T13:37:30;158166.50;;;21.63;38.27
5350;BME280;2697;42.144;24.794;2023-03-09T13:42:22;158179.75;;;21.68;38.23
5350;BME280;2697;42.144;24.794;2023-03-09T13:44:47;158291.38;;;22.11;38.05
5350;BME280;2697;42.144;24.794;2023-03-09T13:47:25;158166.50;;;21.63;38.64
5350;BME280;2697;42.144;24.794;2023-03-09T13:49:52;158043.00;;;21.16;38.83
5350;BME280;2697;42.144;24.794;2023-03-09T13:52:19;158108.13;;;21.41;38.78
5350;BME280;2697;42.144;24.794;2023-03-09T13:59:58;158023.09;;;21.08;40.46
5350;BME280;2697;42.144;24.794;2023-03-09T14:02:29;157936.81;;;20.75;40.88
5350;BME280;2697;42.144;24.794;2023-03-09T14:10:25;157804.13;;;20.24;41.59
5350;BME280;2697;42.144;24.794;2023-03-09T14:12:53;157894.41;;;20.59;40.98
5350;BME280;2697;42.144;24.794;2023-03-09T14:15:20;157922.25;;;20.69;40.53
5350;BME280;2697;42.144;24.794;2023-03-09T14:17:47;157939.53;;;20.76;40.82
5350;BME280;2697;42.144;24.794;2023-03-09T14:20:22;157996.56;;;20.98;40.51
5350;BME280;2697;42.144;24.794;2023-03-09T14:22:49;158012.50;;;21.04;39.93